sensor_id;sensor_type;location;lat;lon;timestamp;P1;durP1;ratioP1;P2;durP2;ratioP2
82560;SDS011;72228;51.208;10.468;2023-08-31T00:02:24;1.52;;;1.17;;
82560;SDS011;72228;51.208;10.468;2023-08-31T00:04:52;3.00;;;1.38;;
82560;SDS011;72228;51.208;10.468;2023-08-31T00:07:21;1.42;;;1.17;;
82560;SDS011;72228;51.208;10.468;2023-08-31T00:09:47;2.20;;;1.40;;
82560;SDS011;72228;51.208;10.468;2023-08-31T00:12:12;2.20;;;1.38;;
82560;SDS011;72228;51.208;10.468;2023-08-31T00:14:38;2.00;;;1.50;;
82560;SDS011;72228;51.208;10.468;2023-08-31T00:17:04;1.45;;;1.20;;
82560;SDS011;72228;51.208;10.468;2023-08-31T00:19:30;1.65;;;1.27;;
82560;SDS011;72228;51.208;10.468;2023-08-31T00:21:55;2.33;;;1.58;;
82560;SDS011;72228;51.208;10.468;2023-08-31T00:24:20;2.17;;;1.70;;
82560;SDS011;72228;51.208;10.468;2023-08-31T00:26:47;2.63;;;1.38;;
82560;SDS011;72228;51.208;10.468;2023-08-31T00:29:16;2.10;;;1.50;;
82560;SDS011;72228;51.208;10.468;2023-08-31T00:31:41;2.60;;;1.40;;
82560;SDS011;72228;51.208;10.468;2023-08-31T00:34:08;1.48;;;1.25;;
82560;SDS011;72228;51.208;10.468;2023-08-31T00:39:06;1.95;;;1.30;;
82560;SDS011;72228;51.208;10.468;2023-08-31T00:41:33;1.80;;;1.30;;
82560;SDS011;72228;51.208;10.468;2023-08-31T00:43:58;1.90;;;1.42;;
82560;SDS011;72228;51.208;10.468;2023-08-31T00:46:24;2.25;;;1.40;;
82560;SDS011;72228;51.208;10.468;2023-08-31T00:48:52;1.90;;;1.40;;
82560;SDS011;72228;51.208;10.468;2023-08-31T00:51:18;1.95;;;1.30;;
82560;SDS011;72228;51.208;10.468;2023-08-31T00:53:44;1.92;;;1.40;;
82560;SDS011;72228;51.208;10.468;2023-08-31T00:56:10;2.88;;;1.67;;
82560;SDS011;72228;51.208;10.468;2023-08-31T00:58:35;1.98;;;1.50;;
82560;SDS011;72228;51.208;10.468;2023-08-31T01:01:10;1.77;;;1.48;;
82560;SDS011;72228;51.208;10.468;2023-08-31T01:14:32;1.70;;;1.55;;
82560;SDS011;72228;51.208;10.468;2023-08-31T01:17:05;2.55;;;1.67;;
82560;SDS011;72228;51.208;10.468;2023-08-31T01:19:49;1.80;;;1.38;;
82560;SDS011;72228;51.208;10.468;2023-08-31T01:22:51;1.92;;;1.52;;
82560;SDS011;72228;51.208;10.468;2023-08-31T01:25:09;1.90;;;1.42;;
82560;SDS011;72228;51.208;10.468;2023-08-31T01:27:36;1.88;;;1.50;;
82560;SDS011;72228;51.208;10.468;2023-08-31T01:30:03;1.95;;;1.42;;
82560;SDS011;72228;51.208;10.468;2023-08-31T01:32:29;2.75;;;1.42;;
82560;SDS011;72228;51.208;10.468;2023-08-31T01:34:55;1.80;;;1.40;;
82560;SDS011;72228;51.208;10.468;2023-08-31T01:40:17;1.92;;;1.60;;
82560;SDS011;72228;51.208;10.468;2023-08-31T01:42:48;2.55;;;1.63;;
82560;SDS011;72228;51.208;10.468;2023-08-31T01:45:15;2.50;;;1.67;;
82560;SDS011;72228;51.208;10.468;2023-08-31T01:47:45;2.03;;;1.75;;
82560;SDS011;72228;51.208;10.468;2023-08-31T01:50:11;2.72;;;1.65;;
82560;SDS011;72228;51.208;10.468;2023-08-31T01:52:36;3.30;;;1.67;;
82560;SDS011;72228;51.208;10.468;2023-08-31T01:55:02;2.63;;;1.88;;
82560;SDS011;72228;51.208;10.468;2023-08-31T01:57:28;1.95;;;1.52;;
82560;SDS011;72228;51.208;10.468;2023-08-31T01:59:53;2.50;;;1.70;;
82560;SDS011;72228;51.208;10.468;2023-08-31T02:02:19;2.08;;;1.55;;
82560;SDS011;72228;51.208;10.468;2023-08-31T02:04:44;2.08;;;1.58;;
82560;SDS011;72228;51.208;10.468;2023-08-31T02:07:10;2.38;;;1.70;;
82560;SDS011;72228;51.208;10.468;2023-08-31T02:09:35;3.08;;;1.70;;
82560;SDS011;72228;51.208;10.468;2023-08-31T02:12:00;2.47;;;1.55;;
82560;SDS011;72228;51.208;10.468;2023-08-31T02:14:26;2.50;;;1.70;;
82560;SDS011;72228;51.208;10.468;2023-08-31T02:16:51;3.17;;;2.00;;
82560;SDS011;72228;51.208;10.468;2023-08-31T02:19:17;2.28;;;1.83;;
82560;SDS011;72228;51.208;10.468;2023-08-31T02:21:42;2.50;;;1.70;;
82560;SDS011;72228;51.208;10.468;2023-08-31T02:24:07;3.47;;;2.00;;
82560;SDS011;72228;51.208;10.468;2023-08-31T02:26:35;2.60;;;1.80;;
82560;SDS011;72228;51.208;10.468;2023-08-31T02:29:02;2.33;;;1.67;;
82560;SDS011;72228;51.208;10.468;2023-08-31T02:31:27;2.88;;;1.95;;
82560;SDS011;72228;51.208;10.468;2023-08-31T02:33:53;5.10;;;2.08;;
82560;SDS011;72228;51.208;10.468;2023-08-31T02:36:18;2.97;;;1.85;;
82560;SDS011;72228;51.208;10.468;2023-08-31T02:38:45;2.67;;;1.77;;
82560;SDS011;72228;51.208;10.468;2023-08-31T02:41:11;2.85;;;1.90;;
82560;SDS011;72228;51.208;10.468;2023-08-31T02:43:37;2.65;;;1.85;;
82560;SDS011;72228;51.208;10.468;2023-08-31T02:46:02;2.67;;;1.88;;
82560;SDS011;72228;51.208;10.468;2023-08-31T02:48:28;2.45;;;1.70;;
82560;SDS011;72228;51.208;10.468;2023-08-31T02:50:56;2.70;;;2.17;;
82560;SDS011;72228;51.208;10.468;2023-08-31T02:53:22;3.20;;;1.70;;
82560;SDS011;72228;51.208;10.468;2023-08-31T02:55:47;3.13;;;2.20;;
82560;SDS011;72228;51.208;10.468;2023-08-31T02:58:15;2.95;;;2.13;;
82560;SDS011;72228;51.208;10.468;2023-08-31T03:00:41;2.35;;;2.15;;
82560;SDS011;72228;51.208;10.468;2023-08-31T03:03:07;3.95;;;2.20;;
82560;SDS011;72228;51.208;10.468;2023-08-31T03:05:33;2.72;;;2.00;;
82560;SDS011;72228;51.208;10.468;2023-08-31T03:07:59;2.20;;;1.80;;
82560;SDS011;72228;51.208;10.468;2023-08-31T03:10:25;3.38;;;2.03;;
82560;SDS011;72228;51.208;10.468;2023-08-31T03:12:50;3.28;;;2.00;;
82560;SDS011;72228;51.208;10.468;2023-08-31T03:15:15;4.57;;;2.03;;
82560;SDS011;72228;51.208;10.468;2023-08-31T03:17:41;3.42;;;2.35;;
82560;SDS011;72228;51.208;10.468;2023-08-31T03:20:06;3.53;;;2.20;;
82560;SDS011;72228;51.208;10.468;2023-08-31T03:22:32;2.72;;;2.00;;
82560;SDS011;72228;51.208;10.468;2023-08-31T03:24:58;2.25;;;1.92;;
82560;SDS011;72228;51.208;10.468;2023-08-31T03:27:23;2.58;;;2.00;;
82560;SDS011;72228;51.208;10.468;2023-08-31T03:29:49;2.72;;;2.10;;
82560;SDS011;72228;51.208;10.468;2023-08-31T03:32:15;3.15;;;2.10;;
82560;SDS011;72228;51.208;10.468;2023-08-31T03:34:40;3.15;;;2.10;;
82560;SDS011;72228;51.208;10.468;2023-08-31T03:37:06;2.85;;;2.10;;
82560;SDS011;72228;51.208;10.468;2023-08-31T03:39:31;2.80;;;2.20;;
82560;SDS011;72228;51.208;10.468;2023-08-31T03:41:56;2.33;;;1.85;;
82560;SDS011;72228;51.208;10.468;2023-08-31T03:44:22;3.92;;;1.83;;
82560;SDS011;72228;51.208;10.468;2023-08-31T03:46:47;2.78;;;1.95;;
82560;SDS011;72228;51.208;10.468;2023-08-31T03:49:13;2.47;;;2.00;;
82560;SDS011;72228;51.208;10.468;2023-08-31T03:51:38;3.50;;;2.30;;
82560;SDS011;72228;51.208;10.468;2023-08-31T03:54:04;3.60;;;3.20;;
82560;SDS011;72228;51.208;10.468;2023-08-31T03:56:30;4.07;;;3.63;;
82560;SDS011;72228;51.208;10.468;2023-08-31T03:58:55;6.93;;;4.60;;
82560;SDS011;72228;51.208;10.468;2023-08-31T04:01:20;6.25;;;4.93;;
82560;SDS011;72228;51.208;10.468;2023-08-31T04:03:46;6.50;;;4.65;;
82560;SDS011;72228;51.208;10.468;2023-08-31T04:06:11;7.20;;;5.75;;
82560;SDS011;72228;51.208;10.468;2023-08-31T04:08:37;7.50;;;5.25;;
82560;SDS011;72228;51.208;10.468;2023-08-31T04:11:02;7.13;;;4.75;;
82560;SDS011;72228;51.208;10.468;2023-08-31T04:13:28;4.75;;;4.18;;
82560;SDS011;72228;51.208;10.468;2023-08-31T04:15:53;6.22;;;4.75;;
82560;SDS011;72228;51.208;10.468;2023-08-31T04:18:19;7.13;;;5.15;;
82560;SDS011;72228;51.208;10.468;2023-08-31T04:20:51;7.90;;;5.55;;
82560;SDS011;72228;51.208;10.468;2023-08-31T04:23:18;6.68;;;5.38;;
82560;SDS011;72228;51.208;10.468;2023-08-31T04:25:45;6.70;;;4.95;;
82560;SDS011;72228;51.208;10.468;2023-08-31T04:28:11;6.15;;;4.47;;
82560;SDS011;72228;51.208;10.468;2023-08-31T04:30:36;5.90;;;4.57;;
82560;SDS011;72228;51.208;10.468;2023-08-31T04:33:02;5.63;;;4.63;;
82560;SDS011;72228;51.208;10.468;2023-08-31T04:35:29;5.80;;;4.45;;
82560;SDS011;72228;51.208;10.468;2023-08-31T04:37:56;6.05;;;4.65;;
82560;SDS011;72228;51.208;10.468;2023-08-31T04:40:22;5.60;;;4.47;;
82560;SDS011;72228;51.208;10.468;2023-08-31T04:42:47;6.55;;;4.13;;
82560;SDS011;72228;51.208;10.468;2023-08-31T04:45:12;6.60;;;4.85;;
82560;SDS011;72228;51.208;10.468;2023-08-31T04:47:38;6.13;;;4.28;;
82560;SDS011;72228;51.208;10.468;2023-08-31T04:50:03;6.95;;;4.68;;
82560;SDS011;72228;51.208;10.468;2023-08-31T04:54:56;5.88;;;4.32;;
82560;SDS011;72228;51.208;10.468;2023-08-31T04:57:22;8.15;;;3.97;;
82560;SDS011;72228;51.208;10.468;2023-08-31T04:59:48;6.95;;;4.05;;
82560;SDS011;72228;51.208;10.468;2023-08-31T05:02:14;8.88;;;4.50;;
82560;SDS011;72228;51.208;10.468;2023-08-31T05:04:39;11.30;;;4.50;;
82560;SDS011;72228;51.208;10.468;2023-08-31T05:07:04;13.25;;;4.53;;
82560;SDS011;72228;51.208;10.468;2023-08-31T05:09:30;20.45;;;4.80;;
82560;SDS011;72228;51.208;10.468;2023-08-31T05:11:59;13.60;;;4.85;;
82560;SDS011;72228;51.208;10.468;2023-08-31T05:14:28;10.55;;;5.15;;
82560;SDS011;72228;51.208;10.468;2023-08-31T05:16:54;13.60;;;4.40;;
82560;SDS011;72228;51.208;10.468;2023-08-31T05:19:19;12.00;;;4.60;;
82560;SDS011;72228;51.208;10.468;2023-08-31T05:21:45;12.02;;;4.30;;
82560;SDS011;72228;51.208;10.468;2023-08-31T05:24:11;13.00;;;6.30;;
82560;SDS011;72228;51.208;10.468;2023-08-31T05:26:36;10.93;;;6.40;;
82560;SDS011;72228;51.208;10.468;2023-08-31T05:29:01;16.33;;;6.80;;
82560;SDS011;72228;51.208;10.468;2023-08-31T05:31:29;10.48;;;5.95;;
82560;SDS011;72228;51.208;10.468;2023-08-31T05:33:54;11.82;;;5.68;;
82560;SDS011;72228;51.208;10.468;2023-08-31T05:36:20;18.83;;;7.50;;
82560;SDS011;72228;51.208;10.468;2023-08-31T05:38:45;27.40;;;14.77;;
82560;SDS011;72228;51.208;10.468;2023-08-31T05:41:11;18.65;;;12.65;;
82560;SDS011;72228;51.208;10.468;2023-08-31T05:43:37;19.95;;;12.15;;
82560;SDS011;72228;51.208;10.468;2023-08-31T05:46:05;26.33;;;11.25;;
82560;SDS011;72228;51.208;10.468;2023-08-31T05:48:31;16.20;;;10.57;;
82560;SDS011;72228;51.208;10.468;2023-08-31T05:50:57;21.80;;;9.50;;
82560;SDS011;72228;51.208;10.468;2023-08-31T05:53:22;14.88;;;8.57;;
82560;SDS011;72228;51.208;10.468;2023-08-31T05:55:48;19.55;;;8.45;;
82560;SDS011;72228;51.208;10.468;2023-08-31T05:58:13;11.82;;;7.10;;
82560;SDS011;72228;51.208;10.468;2023-08-31T06:00:39;16.05;;;7.55;;
82560;SDS011;72228;51.208;10.468;2023-08-31T06:03:04;15.63;;;8.02;;
82560;SDS011;72228;51.208;10.468;2023-08-31T06:05:31;14.13;;;8.38;;
82560;SDS011;72228;51.208;10.468;2023-08-31T06:08:00;11.30;;;7.07;;
82560;SDS011;72228;51.208;10.468;2023-08-31T06:10:25;22.23;;;11.75;;
82560;SDS011;72228;51.208;10.468;2023-08-31T06:12:50;25.38;;;10.80;;
82560;SDS011;72228;51.208;10.468;2023-08-31T06:15:16;17.00;;;11.68;;
82560;SDS011;72228;51.208;10.468;2023-08-31T06:17:42;15.98;;;11.45;;
82560;SDS011;72228;51.208;10.468;2023-08-31T06:20:08;13.73;;;10.48;;
82560;SDS011;72228;51.208;10.468;2023-08-31T06:22:34;19.52;;;9.85;;
82560;SDS011;72228;51.208;10.468;2023-08-31T06:25:00;11.75;;;7.75;;
82560;SDS011;72228;51.208;10.468;2023-08-31T06:27:25;13.60;;;8.68;;
82560;SDS011;72228;51.208;10.468;2023-08-31T06:29:51;9.65;;;7.40;;
82560;SDS011;72228;51.208;10.468;2023-08-31T06:32:17;11.45;;;8.05;;
82560;SDS011;72228;51.208;10.468;2023-08-31T06:34:43;13.93;;;8.15;;
82560;SDS011;72228;51.208;10.468;2023-08-31T06:37:09;13.68;;;8.20;;
82560;SDS011;72228;51.208;10.468;2023-08-31T06:39:34;17.70;;;7.95;;
82560;SDS011;72228;51.208;10.468;2023-08-31T06:42:01;15.48;;;8.05;;
82560;SDS011;72228;51.208;10.468;2023-08-31T06:44:27;11.10;;;7.10;;
82560;SDS011;72228;51.208;10.468;2023-08-31T06:46:54;17.85;;;7.05;;
82560;SDS011;72228;51.208;10.468;2023-08-31T06:49:20;11.65;;;7.30;;
82560;SDS011;72228;51.208;10.468;2023-08-31T06:51:45;13.70;;;6.80;;
82560;SDS011;72228;51.208;10.468;2023-08-31T06:54:11;12.07;;;7.05;;
82560;SDS011;72228;51.208;10.468;2023-08-31T06:56:36;17.48;;;6.47;;
82560;SDS011;72228;51.208;10.468;2023-08-31T06:59:02;11.55;;;6.53;;
82560;SDS011;72228;51.208;10.468;2023-08-31T07:01:28;10.68;;;7.30;;
82560;SDS011;72228;51.208;10.468;2023-08-31T07:03:55;12.85;;;7.60;;
82560;SDS011;72228;51.208;10.468;2023-08-31T07:06:21;8.60;;;6.07;;
82560;SDS011;72228;51.208;10.468;2023-08-31T07:08:46;11.90;;;7.18;;
82560;SDS011;72228;51.208;10.468;2023-08-31T07:11:13;10.13;;;6.55;;
82560;SDS011;72228;51.208;10.468;2023-08-31T07:13:39;11.30;;;6.15;;
82560;SDS011;72228;51.208;10.468;2023-08-31T07:16:05;7.55;;;6.20;;
82560;SDS011;72228;51.208;10.468;2023-08-31T07:18:30;7.95;;;6.03;;
82560;SDS011;72228;51.208;10.468;2023-08-31T07:20:56;8.68;;;6.25;;
82560;SDS011;72228;51.208;10.468;2023-08-31T07:23:22;7.97;;;6.45;;
82560;SDS011;72228;51.208;10.468;2023-08-31T07:25:47;10.02;;;6.10;;
82560;SDS011;72228;51.208;10.468;2023-08-31T07:28:14;10.40;;;5.80;;
82560;SDS011;72228;51.208;10.468;2023-08-31T07:30:39;7.90;;;5.57;;
82560;SDS011;72228;51.208;10.468;2023-08-31T07:33:05;9.88;;;6.00;;
82560;SDS011;72228;51.208;10.468;2023-08-31T07:35:31;10.45;;;5.97;;
82560;SDS011;72228;51.208;10.468;2023-08-31T07:37:57;12.63;;;5.15;;
82560;SDS011;72228;51.208;10.468;2023-08-31T07:40:22;9.25;;;5.40;;
82560;SDS011;72228;51.208;10.468;2023-08-31T07:42:48;6.65;;;4.93;;
82560;SDS011;72228;51.208;10.468;2023-08-31T07:45:14;9.63;;;5.20;;
82560;SDS011;72228;51.208;10.468;2023-08-31T07:47:39;7.43;;;4.72;;
82560;SDS011;72228;51.208;10.468;2023-08-31T07:50:05;6.57;;;4.43;;
82560;SDS011;72228;51.208;10.468;2023-08-31T07:52:31;7.55;;;4.63;;
82560;SDS011;72228;51.208;10.468;2023-08-31T07:54:57;7.45;;;3.80;;
82560;SDS011;72228;51.208;10.468;2023-08-31T07:57:22;6.15;;;4.00;;
82560;SDS011;72228;51.208;10.468;2023-08-31T07:59:47;6.30;;;4.20;;
82560;SDS011;72228;51.208;10.468;2023-08-31T08:02:13;8.90;;;4.05;;
82560;SDS011;72228;51.208;10.468;2023-08-31T08:04:40;7.22;;;3.85;;
82560;SDS011;72228;51.208;10.468;2023-08-31T08:07:06;7.97;;;3.53;;
82560;SDS011;72228;51.208;10.468;2023-08-31T08:09:31;5.05;;;3.70;;
82560;SDS011;72228;51.208;10.468;2023-08-31T08:11:57;7.35;;;3.70;;
82560;SDS011;72228;51.208;10.468;2023-08-31T08:14:22;5.82;;;3.63;;
82560;SDS011;72228;51.208;10.468;2023-08-31T08:16:47;3.65;;;3.28;;
82560;SDS011;72228;51.208;10.468;2023-08-31T08:19:13;4.40;;;3.85;;
82560;SDS011;72228;51.208;10.468;2023-08-31T08:21:38;5.07;;;3.13;;
82560;SDS011;72228;51.208;10.468;2023-08-31T08:24:04;5.93;;;3.13;;
82560;SDS011;72228;51.208;10.468;2023-08-31T08:26:29;4.22;;;3.10;;
82560;SDS011;72228;51.208;10.468;2023-08-31T08:28:55;4.63;;;3.13;;
82560;SDS011;72228;51.208;10.468;2023-08-31T08:31:20;4.07;;;3.53;;
82560;SDS011;72228;51.208;10.468;2023-08-31T08:33:45;8.88;;;3.55;;
82560;SDS011;72228;51.208;10.468;2023-08-31T08:36:11;6.88;;;3.28;;
82560;SDS011;72228;51.208;10.468;2023-08-31T08:38:36;3.83;;;2.78;;
82560;SDS011;72228;51.208;10.468;2023-08-31T08:41:05;4.25;;;2.80;;
82560;SDS011;72228;51.208;10.468;2023-08-31T08:43:31;4.82;;;2.95;;
82560;SDS011;72228;51.208;10.468;2023-08-31T08:46:02;3.75;;;2.70;;
82560;SDS011;72228;51.208;10.468;2023-08-31T08:48:30;3.88;;;2.90;;
82560;SDS011;72228;51.208;10.468;2023-08-31T08:50:58;3.22;;;2.45;;
82560;SDS011;72228;51.208;10.468;2023-08-31T08:53:24;4.38;;;2.55;;
82560;SDS011;72228;51.208;10.468;2023-08-31T08:55:50;5.60;;;2.75;;
82560;SDS011;72228;51.208;10.468;2023-08-31T08:58:15;3.88;;;2.47;;
82560;SDS011;72228;51.208;10.468;2023-08-31T09:00:41;4.13;;;2.75;;
82560;SDS011;72228;51.208;10.468;2023-08-31T09:03:07;4.40;;;2.70;;
82560;SDS011;72228;51.208;10.468;2023-08-31T09:05:33;5.18;;;2.67;;
82560;SDS011;72228;51.208;10.468;2023-08-31T09:08:08;2.83;;;2.22;;
82560;SDS011;72228;51.208;10.468;2023-08-31T09:10:37;3.05;;;2.30;;
82560;SDS011;72228;51.208;10.468;2023-08-31T09:13:05;4.05;;;2.42;;
82560;SDS011;72228;51.208;10.468;2023-08-31T09:15:51;2.67;;;2.00;;
82560;SDS011;72228;51.208;10.468;2023-08-31T09:20:56;3.33;;;2.42;;
82560;SDS011;72228;51.208;10.468;2023-08-31T09:23:22;4.20;;;2.00;;
82560;SDS011;72228;51.208;10.468;2023-08-31T09:25:49;3.58;;;2.10;;
82560;SDS011;72228;51.208;10.468;2023-08-31T09:28:24;3.40;;;2.10;;
82560;SDS011;72228;51.208;10.468;2023-08-31T09:30:52;4.15;;;2.28;;
82560;SDS011;72228;51.208;10.468;2023-08-31T09:33:19;3.10;;;2.15;;
82560;SDS011;72228;51.208;10.468;2023-08-31T09:35:47;3.55;;;2.40;;
82560;SDS011;72228;51.208;10.468;2023-08-31T09:38:16;3.65;;;2.22;;
82560;SDS011;72228;51.208;10.468;2023-08-31T09:40:42;3.28;;;2.10;;
82560;SDS011;72228;51.208;10.468;2023-08-31T09:43:07;3.40;;;2.20;;
82560;SDS011;72228;51.208;10.468;2023-08-31T09:45:34;7.22;;;2.13;;
82560;SDS011;72228;51.208;10.468;2023-08-31T09:48:02;3.00;;;2.10;;
82560;SDS011;72228;51.208;10.468;2023-08-31T09:50:29;3.45;;;2.03;;
82560;SDS011;72228;51.208;10.468;2023-08-31T09:52:56;2.92;;;2.30;;
82560;SDS011;72228;51.208;10.468;2023-08-31T09:55:27;2.80;;;2.50;;
82560;SDS011;72228;51.208;10.468;2023-08-31T09:57:54;3.95;;;2.65;;
82560;SDS011;72228;51.208;10.468;2023-08-31T10:00:22;2.85;;;2.28;;
82560;SDS011;72228;51.208;10.468;2023-08-31T10:02:47;3.38;;;2.20;;
82560;SDS011;72228;51.208;10.468;2023-08-31T10:05:14;5.53;;;2.38;;
82560;SDS011;72228;51.208;10.468;2023-08-31T10:07:40;5.10;;;1.95;;
82560;SDS011;72228;51.208;10.468;2023-08-31T10:10:07;4.70;;;2.00;;
82560;SDS011;72228;51.208;10.468;2023-08-31T10:12:34;5.63;;;2.20;;
82560;SDS011;72228;51.208;10.468;2023-08-31T10:15:00;4.55;;;2.42;;
82560;SDS011;72228;51.208;10.468;2023-08-31T10:17:26;3.63;;;2.10;;
82560;SDS011;72228;51.208;10.468;2023-08-31T10:19:53;4.53;;;2.15;;
82560;SDS011;72228;51.208;10.468;2023-08-31T10:22:19;3.33;;;2.05;;
82560;SDS011;72228;51.208;10.468;2023-08-31T10:25:04;3.72;;;2.35;;
82560;SDS011;72228;51.208;10.468;2023-08-31T10:27:39;4.57;;;2.40;;
82560;SDS011;72228;51.208;10.468;2023-08-31T10:38:16;4.53;;;2.30;;
82560;SDS011;72228;51.208;10.468;2023-08-31T10:43:56;4.97;;;2.17;;
82560;SDS011;72228;51.208;10.468;2023-08-31T10:51:27;2.53;;;2.25;;
82560;SDS011;72228;51.208;10.468;2023-08-31T10:54:04;5.07;;;3.20;;
82560;SDS011;72228;51.208;10.468;2023-08-31T10:59:40;8.40;;;2.08;;
82560;SDS011;72228;51.208;10.468;2023-08-31T11:02:09;5.70;;;2.30;;
82560;SDS011;72228;51.208;10.468;2023-08-31T11:07:28;3.83;;;2.17;;
82560;SDS011;72228;51.208;10.468;2023-08-31T11:10:06;3.35;;;1.80;;
82560;SDS011;72228;51.208;10.468;2023-08-31T11:12:32;3.53;;;2.22;;
82560;SDS011;72228;51.208;10.468;2023-08-31T11:14:57;5.43;;;2.17;;
82560;SDS011;72228;51.208;10.468;2023-08-31T11:17:23;5.80;;;2.05;;
82560;SDS011;72228;51.208;10.468;2023-08-31T11:19:49;8.63;;;2.25;;
82560;SDS011;72228;51.208;10.468;2023-08-31T11:22:14;5.53;;;1.90;;
82560;SDS011;72228;51.208;10.468;2023-08-31T11:24:40;5.22;;;2.33;;
82560;SDS011;72228;51.208;10.468;2023-08-31T11:27:08;3.65;;;2.00;;
82560;SDS011;72228;51.208;10.468;2023-08-31T11:29:38;4.75;;;2.30;;
82560;SDS011;72228;51.208;10.468;2023-08-31T11:32:07;10.48;;;2.83;;
82560;SDS011;72228;51.208;10.468;2023-08-31T11:34:33;3.20;;;2.20;;
82560;SDS011;72228;51.208;10.468;2023-08-31T11:36:58;4.10;;;2.67;;
82560;SDS011;72228;51.208;10.468;2023-08-31T11:39:26;4.82;;;2.75;;
82560;SDS011;72228;51.208;10.468;2023-08-31T11:41:51;5.78;;;2.58;;
82560;SDS011;72228;51.208;10.468;2023-08-31T11:44:17;7.97;;;2.13;;
82560;SDS011;72228;51.208;10.468;2023-08-31T11:46:43;12.43;;;2.67;;
82560;SDS011;72228;51.208;10.468;2023-08-31T11:49:11;16.75;;;3.70;;
82560;SDS011;72228;51.208;10.468;2023-08-31T11:51:37;13.02;;;3.28;;
82560;SDS011;72228;51.208;10.468;2023-08-31T11:56:43;17.65;;;4.07;;
82560;SDS011;72228;51.208;10.468;2023-08-31T11:59:11;7.57;;;2.40;;
82560;SDS011;72228;51.208;10.468;2023-08-31T12:01:40;7.88;;;3.55;;
82560;SDS011;72228;51.208;10.468;2023-08-31T12:04:14;12.07;;;3.15;;
82560;SDS011;72228;51.208;10.468;2023-08-31T12:06:40;7.75;;;3.00;;
82560;SDS011;72228;51.208;10.468;2023-08-31T12:09:07;11.75;;;3.58;;
82560;SDS011;72228;51.208;10.468;2023-08-31T12:11:34;5.90;;;2.85;;
82560;SDS011;72228;51.208;10.468;2023-08-31T12:14:03;13.27;;;2.80;;
82560;SDS011;72228;51.208;10.468;2023-08-31T12:16:42;7.40;;;2.60;;
82560;SDS011;72228;51.208;10.468;2023-08-31T12:19:09;7.05;;;2.47;;
82560;SDS011;72228;51.208;10.468;2023-08-31T12:21:34;8.52;;;2.60;;
82560;SDS011;72228;51.208;10.468;2023-08-31T12:24:00;4.88;;;2.65;;
82560;SDS011;72228;51.208;10.468;2023-08-31T12:26:26;8.70;;;2.30;;
82560;SDS011;72228;51.208;10.468;2023-08-31T12:28:52;6.07;;;2.60;;
82560;SDS011;72228;51.208;10.468;2023-08-31T12:31:17;5.13;;;2.42;;
82560;SDS011;72228;51.208;10.468;2023-08-31T12:33:43;5.88;;;2.58;;
82560;SDS011;72228;51.208;10.468;2023-08-31T12:36:08;3.63;;;2.20;;
82560;SDS011;72228;51.208;10.468;2023-08-31T12:38:34;5.07;;;2.40;;
82560;SDS011;72228;51.208;10.468;2023-08-31T12:40:59;6.95;;;2.70;;
82560;SDS011;72228;51.208;10.468;2023-08-31T12:43:26;7.03;;;2.42;;
82560;SDS011;72228;51.208;10.468;2023-08-31T12:45:52;6.13;;;2.13;;
82560;SDS011;72228;51.208;10.468;2023-08-31T12:48:17;5.20;;;2.60;;
82560;SDS011;72228;51.208;10.468;2023-08-31T12:50:43;4.72;;;2.60;;
82560;SDS011;72228;51.208;10.468;2023-08-31T12:53:08;4.30;;;2.10;;
82560;SDS011;72228;51.208;10.468;2023-08-31T12:55:34;5.60;;;2.03;;
82560;SDS011;72228;51.208;10.468;2023-08-31T12:57:59;4.38;;;2.13;;
82560;SDS011;72228;51.208;10.468;2023-08-31T13:00:25;2.67;;;2.03;;
82560;SDS011;72228;51.208;10.468;2023-08-31T13:02:50;4.05;;;2.53;;
82560;SDS011;72228;51.208;10.468;2023-08-31T13:05:16;3.70;;;2.20;;
82560;SDS011;72228;51.208;10.468;2023-08-31T13:07:44;5.85;;;2.47;;
82560;SDS011;72228;51.208;10.468;2023-08-31T13:10:10;3.42;;;2.00;;
82560;SDS011;72228;51.208;10.468;2023-08-31T13:12:36;3.20;;;2.47;;
82560;SDS011;72228;51.208;10.468;2023-08-31T13:15:02;4.07;;;2.13;;
82560;SDS011;72228;51.208;10.468;2023-08-31T13:17:28;4.15;;;2.67;;
82560;SDS011;72228;51.208;10.468;2023-08-31T13:19:54;4.32;;;2.80;;
82560;SDS011;72228;51.208;10.468;2023-08-31T13:22:20;4.35;;;2.45;;
82560;SDS011;72228;51.208;10.468;2023-08-31T13:24:46;5.13;;;2.67;;
82560;SDS011;72228;51.208;10.468;2023-08-31T13:27:12;4.38;;;2.50;;
82560;SDS011;72228;51.208;10.468;2023-08-31T13:29:41;4.53;;;2.53;;
82560;SDS011;72228;51.208;10.468;2023-08-31T13:32:07;3.17;;;2.22;;
82560;SDS011;72228;51.208;10.468;2023-08-31T13:34:32;6.53;;;2.38;;
82560;SDS011;72228;51.208;10.468;2023-08-31T13:36:58;3.50;;;2.20;;
82560;SDS011;72228;51.208;10.468;2023-08-31T13:39:23;4.07;;;2.20;;
82560;SDS011;72228;51.208;10.468;2023-08-31T13:41:50;4.22;;;2.03;;
82560;SDS011;72228;51.208;10.468;2023-08-31T13:44:16;4.03;;;2.03;;
82560;SDS011;72228;51.208;10.468;2023-08-31T13:46:42;5.05;;;2.25;;
82560;SDS011;72228;51.208;10.468;2023-08-31T13:49:08;3.08;;;2.00;;
82560;SDS011;72228;51.208;10.468;2023-08-31T13:51:33;3.70;;;2.20;;
82560;SDS011;72228;51.208;10.468;2023-08-31T13:53:58;3.97;;;2.10;;
82560;SDS011;72228;51.208;10.468;2023-08-31T13:56:24;4.50;;;2.20;;
82560;SDS011;72228;51.208;10.468;2023-08-31T13:58:49;3.45;;;1.90;;
82560;SDS011;72228;51.208;10.468;2023-08-31T14:01:15;4.05;;;2.05;;
82560;SDS011;72228;51.208;10.468;2023-08-31T14:03:40;3.80;;;2.25;;
82560;SDS011;72228;51.208;10.468;2023-08-31T14:06:07;4.68;;;2.17;;
82560;SDS011;72228;51.208;10.468;2023-08-31T14:08:33;4.57;;;2.20;;
82560;SDS011;72228;51.208;10.468;2023-08-31T14:10:59;3.58;;;1.95;;
82560;SDS011;72228;51.208;10.468;2023-08-31T14:13:24;3.47;;;2.15;;
82560;SDS011;72228;51.208;10.468;2023-08-31T14:15:49;3.17;;;2.20;;
82560;SDS011;72228;51.208;10.468;2023-08-31T14:18:15;3.60;;;1.77;;
82560;SDS011;72228;51.208;10.468;2023-08-31T14:20:40;3.13;;;2.10;;
82560;SDS011;72228;51.208;10.468;2023-08-31T14:23:06;3.17;;;2.75;;
82560;SDS011;72228;51.208;10.468;2023-08-31T14:25:35;6.68;;;2.92;;
82560;SDS011;72228;51.208;10.468;2023-08-31T14:28:01;2.60;;;2.00;;
82560;SDS011;72228;51.208;10.468;2023-08-31T14:30:27;2.78;;;2.10;;
82560;SDS011;72228;51.208;10.468;2023-08-31T14:32:53;2.75;;;2.00;;
82560;SDS011;72228;51.208;10.468;2023-08-31T14:35:18;2.97;;;2.45;;
82560;SDS011;72228;51.208;10.468;2023-08-31T14:37:44;2.58;;;2.15;;
82560;SDS011;72228;51.208;10.468;2023-08-31T14:40:09;3.22;;;2.17;;
82560;SDS011;72228;51.208;10.468;2023-08-31T14:42:35;3.28;;;2.25;;
82560;SDS011;72228;51.208;10.468;2023-08-31T14:45:01;2.40;;;1.95;;
82560;SDS011;72228;51.208;10.468;2023-08-31T14:47:27;3.03;;;1.90;;
82560;SDS011;72228;51.208;10.468;2023-08-31T14:49:52;2.78;;;1.98;;
82560;SDS011;72228;51.208;10.468;2023-08-31T14:52:20;2.80;;;1.90;;
82560;SDS011;72228;51.208;10.468;2023-08-31T14:54:45;4.53;;;2.03;;
82560;SDS011;72228;51.208;10.468;2023-08-31T14:57:11;6.65;;;2.60;;
82560;SDS011;72228;51.208;10.468;2023-08-31T14:59:36;3.47;;;2.00;;
82560;SDS011;72228;51.208;10.468;2023-08-31T15:02:02;7.53;;;2.28;;
82560;SDS011;72228;51.208;10.468;2023-08-31T15:04:30;3.83;;;1.88;;
82560;SDS011;72228;51.208;10.468;2023-08-31T15:06:59;3.75;;;1.85;;
82560;SDS011;72228;51.208;10.468;2023-08-31T15:09:25;7.95;;;2.00;;
82560;SDS011;72228;51.208;10.468;2023-08-31T15:11:50;6.22;;;2.10;;
82560;SDS011;72228;51.208;10.468;2023-08-31T15:14:16;6.68;;;2.03;;